createdAt,value
2023-03-26T00:01:40.899Z,96928.70
2023-03-26T00:04:09.463Z,96928.23
2023-03-26T00:06:39.995Z,96925.36
2023-03-26T00:09:13.813Z,96928.08
2023-03-26T00:11:44.201Z,96923.97
2023-03-26T00:14:14.254Z,96916.13
2023-03-26T00:16:42.976Z,96919.52
2023-03-26T00:19:12.937Z,96928.59
2023-03-26T00:21:41.896Z,96929.77
2023-03-26T00:24:15.503Z,96923.04
2023-03-26T00:26:45.039Z,96928.48
2023-03-26T00:29:15.788Z,96933.24
2023-03-26T00:31:46.680Z,96931.70
2023-03-26T00:34:18.807Z,96933.77
2023-03-26T00:36:47.582Z,96935.70
2023-03-26T00:39:18.107Z,96934.67
2023-03-26T00:41:46.629Z,96939.00
2023-03-26T00:44:15.103Z,96936.74
2023-03-26T00:46:43.715Z,96933.77
2023-03-26T00:49:14.988Z,96933.08
2023-03-26T00:51:43.625Z,96931.11
2023-03-26T00:54:12.987Z,96933.44
2023-03-26T00:56:41.581Z,96933.95
2023-03-26T00:59:10.700Z,96933.52
2023-03-26T01:01:40.136Z,96934.73
2023-03-26T01:04:31.720Z,96932.54
2023-03-26T01:07:11.965Z,96932.08
2023-03-26T01:09:45.208Z,96926.13
2023-03-26T01:12:18.856Z,96925.00
2023-03-26T01:14:50.972Z,96927.96
2023-03-26T01:17:22.269Z,96926.18
2023-03-26T01:20:07.747Z,96923.64
2023-03-26T01:22:42.255Z,96922.39
2023-03-26T01:25:11.433Z,96922.05
2023-03-26T01:27:58.373Z,96915.02
2023-03-26T01:30:37.313Z,96911.29
2023-03-26T01:33:14.434Z,96912.37
2023-03-26T01:36:01.975Z,96918.83
2023-03-26T01:38:41.162Z,96918.95
2023-03-26T01:41:17.914Z,96921.92
2023-03-26T01:44:03.269Z,96922.53
2023-03-26T01:46:37.226Z,96927.96
2023-03-26T01:49:13.284Z,96930.64
2023-03-26T01:51:42.839Z,96936.55
2023-03-26T01:54:17.188Z,96939.18
2023-03-26T01:56:54.728Z,96941.02
2023-03-26T01:59:29.220Z,96939.78
2023-03-26T02:02:14.625Z,96948.91
2023-03-26T02:05:06.630Z,96952.11
2023-03-26T02:07:42.308Z,96949.79
2023-03-26T02:10:24.557Z,96953.52
2023-03-26T02:12:54.390Z,96955.54
2023-03-26T02:15:23.595Z,96953.77
2023-03-26T02:17:57.761Z,96950.99
2023-03-26T02:20:30.465Z,96947.27
2023-03-26T02:23:00.036Z,96949.08
2023-03-26T02:25:29.228Z,96949.02
2023-03-26T02:27:59.232Z,96946.64
2023-03-26T02:30:33.947Z,96941.45
2023-03-26T02:33:07.637Z,96945.14
2023-03-26T02:35:40.627Z,96948.15
2023-03-26T02:38:14.594Z,96951.42
2023-03-26T02:40:43.615Z,96957.95
2023-03-26T02:43:12.141Z,96964.32
2023-03-26T02:45:41.513Z,96965.66
2023-03-26T02:48:34.853Z,96964.41
2023-03-26T02:51:27.832Z,96966.92
2023-03-26T02:54:23.473Z,96971.45
2023-03-26T02:56:57.951Z,96974.73
2023-03-26T02:59:46.564Z,96973.88
2023-03-26T03:02:38.591Z,96977.42
2023-03-26T03:05:38.285Z,96979.28
2023-03-26T03:08:34.626Z,96981.03
2023-03-26T03:11:18.175Z,96984.57
2023-03-26T03:13:51.949Z,96989.58
2023-03-26T03:16:23.859Z,96990.10
2023-03-26T03:18:57.785Z,96985.92
2023-03-26T03:21:41.831Z,96984.61
2023-03-26T03:24:11.817Z,96983.55
2023-03-26T03:26:46.418Z,96980.70
2023-03-26T03:29:29.251Z,96979.09
2023-03-26T03:32:00.287Z,96980.15
2023-03-26T03:34:50.934Z,96979.84
2023-03-26T03:37:20.461Z,96979.52
2023-03-26T03:39:54.466Z,96975.61
2023-03-26T03:42:27.734Z,96976.48
2023-03-26T03:44:58.278Z,96981.06
2023-03-26T03:47:45.764Z,96980.66
2023-03-26T03:50:15.584Z,96981.52
2023-03-26T03:52:55.995Z,96981.58
2023-03-26T03:55:28.709Z,96981.24
2023-03-26T03:57:58.571Z,96983.98
2023-03-26T04:00:27.641Z,96985.31
2023-03-26T04:03:33.696Z,96988.55
2023-03-26T04:06:07.078Z,96991.50
2023-03-26T04:08:36.531Z,96987.73
2023-03-26T04:11:07.729Z,96988.88
2023-03-26T04:13:56.135Z,96998.23
2023-03-26T04:16:41.872Z,97004.94
2023-03-26T04:19:10.500Z,97001.90
2023-03-26T04:21:39.775Z,97004.52
2023-03-26T04:24:09.853Z,97007.23
2023-03-26T04:27:12.905Z,97008.16
2023-03-26T04:29:47.226Z,97009.32
2023-03-26T04:32:26.706Z,97015.66
2023-03-26T04:35:00.517Z,97018.98
2023-03-26T04:37:40.000Z,97023.34
2023-03-26T04:40:20.715Z,97022.42
2023-03-26T04:43:02.668Z,97024.50
2023-03-26T04:45:55.136Z,97020.98
2023-03-26T04:48:25.951Z,97023.96
2023-03-26T04:51:14.452Z,97027.39
2023-03-26T04:53:55.980Z,97029.42
2023-03-26T05:00:17.396Z,97026.38
2023-03-26T05:02:54.381Z,97031.65
2023-03-26T05:05:24.921Z,97034.20
2023-03-26T05:07:54.341Z,97035.50
2023-03-26T05:10:24.341Z,97035.95
2023-03-26T05:13:06.370Z,97038.54
2023-03-26T05:15:47.372Z,97034.71
2023-03-26T05:18:32.588Z,97041.34
2023-03-26T05:21:02.780Z,97046.63
2023-03-26T05:23:32.025Z,97045.42
2023-03-26T05:26:13.258Z,97043.52
2023-03-26T05:28:42.597Z,97043.72
2023-03-26T05:31:22.615Z,97044.98
2023-03-26T05:33:53.592Z,97045.07
2023-03-26T05:36:22.743Z,97047.59
2023-03-26T05:39:00.916Z,97049.02
2023-03-26T05:41:48.324Z,97049.30
2023-03-26T05:44:20.238Z,97048.04
2023-03-26T05:46:48.952Z,97046.63
2023-03-26T05:49:22.576Z,97048.79
2023-03-26T05:51:51.966Z,97045.20
2023-03-26T05:54:36.509Z,97044.90
2023-03-26T05:57:28.606Z,97041.91
2023-03-26T06:00:16.610Z,97041.52
2023-03-26T06:02:48.287Z,97041.67
2023-03-26T06:05:38.191Z,97036.98
2023-03-26T06:08:19.722Z,97031.85
2023-03-26T06:11:01.713Z,97027.92
2023-03-26T06:13:34.503Z,97023.46
2023-03-26T06:16:03.263Z,97022.87
2023-03-26T06:18:38.338Z,97021.59
2023-03-26T06:21:29.403Z,97029.06
2023-03-26T06:24:08.014Z,97034.20
2023-03-26T06:26:44.437Z,97029.05
2023-03-26T06:29:24.259Z,97028.22
2023-03-26T06:32:19.774Z,97030.27
2023-03-26T06:35:07.532Z,97032.52
2023-03-26T06:37:39.172Z,97036.56
2023-03-26T06:40:09.184Z,97040.70
2023-03-26T06:43:11.099Z,97045.99
2023-03-26T06:46:15.714Z,97045.16
2023-03-26T06:49:07.093Z,97049.17
2023-03-26T06:52:11.112Z,97050.69
2023-03-26T06:54:50.026Z,97046.63
2023-03-26T06:57:57.120Z,97051.94
2023-03-26T07:01:05.331Z,97054.20
2023-03-26T07:03:52.637Z,97063.86
2023-03-26T07:06:39.730Z,97061.39
2023-03-26T07:09:30.369Z,97055.94
2023-03-26T07:12:11.338Z,97062.65
2023-03-26T07:14:52.625Z,97062.45
2023-03-26T07:17:44.682Z,97064.35
2023-03-26T07:20:17.368Z,97068.02
2023-03-26T07:22:47.338Z,97064.17
2023-03-26T07:25:35.715Z,97067.60
2023-03-26T07:29:03.750Z,97068.67
2023-03-26T07:31:59.010Z,97072.27
2023-03-26T07:35:17.443Z,97073.02
2023-03-26T07:38:09.861Z,97073.67
2023-03-26T07:41:56.101Z,97076.55
2023-03-26T07:45:18.867Z,97077.23
2023-03-26T07:48:18.872Z,97078.23
2023-03-26T07:51:07.538Z,97083.92
2023-03-26T07:54:07.022Z,97083.73
2023-03-26T07:57:07.672Z,97080.54
2023-03-26T08:00:14.701Z,97074.09
2023-03-26T08:03:32.253Z,97065.95
2023-03-26T08:06:06.048Z,97061.36
2023-03-26T08:08:53.955Z,97059.63
2023-03-26T08:11:54.895Z,97053.36
2023-03-26T08:14:41.890Z,97057.95
2023-03-26T08:17:16.421Z,97058.02
2023-03-26T08:20:09.321Z,97052.96
2023-03-26T08:22:43.419Z,97053.77
2023-03-26T08:25:30.108Z,97051.47
2023-03-26T08:28:09.965Z,97054.56
2023-03-26T08:30:41.891Z,97049.14
2023-03-26T08:33:18.640Z,97046.53
2023-03-26T08:35:49.104Z,97046.09
2023-03-26T08:38:22.334Z,97045.90
2023-03-26T08:41:12.617Z,97037.22
2023-03-26T08:43:41.473Z,97033.14
2023-03-26T08:46:28.014Z,97035.41
2023-03-26T08:49:16.943Z,97035.84
2023-03-26T08:52:05.071Z,97032.52
2023-03-26T08:54:38.956Z,97032.89
2023-03-26T08:57:17.167Z,97038.52
2023-03-26T08:59:51.749Z,97031.02
2023-03-26T09:02:47.882Z,97029.77
2023-03-26T09:05:25.965Z,97027.73
2023-03-26T09:08:20.635Z,97033.89
2023-03-26T09:11:24.758Z,97028.44
2023-03-26T09:14:38.193Z,97030.38
2023-03-26T09:17:09.568Z,97034.46
2023-03-26T09:20:19.042Z,97036.80
2023-03-26T09:23:14.650Z,97034.64
2023-03-26T09:26:09.983Z,97035.30
2023-03-26T09:28:54.981Z,97041.77
2023-03-26T09:31:42.496Z,97043.79
2023-03-26T09:34:22.679Z,97043.70
2023-03-26T09:37:57.329Z,97040.59
2023-03-26T09:40:37.514Z,97041.64
2023-03-26T09:43:43.882Z,97038.40
2023-03-26T09:46:40.618Z,97043.73
2023-03-26T09:49:41.565Z,97046.83
2023-03-26T09:52:32.150Z,97039.77
2023-03-26T09:55:32.637Z,97040.60
2023-03-26T09:58:32.473Z,97043.14
2023-03-26T10:01:26.464Z,97039.95
2023-03-26T10:04:07.569Z,97030.24
2023-03-26T10:06:50.531Z,97029.42
2023-03-26T10:09:31.718Z,97028.77
2023-03-26T10:12:20.781Z,97017.65
2023-03-26T10:14:58.873Z,97016.94
2023-03-26T10:17:51.476Z,97018.88
2023-03-26T10:20:39.985Z,97017.64
2023-03-26T10:23:14.860Z,97017.09
2023-03-26T10:26:14.596Z,97013.15
2023-03-26T10:29:08.027Z,97011.25
2023-03-26T10:32:08.724Z,97009.31
2023-03-26T10:34:53.488Z,97016.14
2023-03-26T10:37:21.992Z,97012.05
2023-03-26T10:40:06.221Z,97004.66
2023-03-26T10:43:13.114Z,97001.08
2023-03-26T10:45:52.110Z,97004.52
2023-03-26T10:48:31.166Z,96999.68
2023-03-26T10:51:21.729Z,97001.69
2023-03-26T10:53:53.932Z,97001.09
2023-03-26T10:56:32.821Z,97008.85
2023-03-26T10:59:14.015Z,97007.58
2023-03-26T11:01:48.687Z,97002.17
2023-03-26T11:04:42.083Z,97002.95
2023-03-26T11:07:19.185Z,97005.86
2023-03-26T11:10:16.887Z,97005.98
2023-03-26T11:12:53.270Z,97001.76
2023-03-26T11:15:31.600Z,96992.61
2023-03-26T11:18:06.254Z,96991.89
2023-03-26T11:20:47.069Z,96994.93
2023-03-26T11:24:05.515Z,96990.35
2023-03-26T11:26:56.133Z,96978.98
2023-03-26T11:29:33.141Z,96983.04
2023-03-26T11:32:17.861Z,96978.84
2023-03-26T11:35:02.666Z,96976.80
2023-03-26T11:37:37.914Z,96975.38
2023-03-26T11:40:15.970Z,96976.48
2023-03-26T11:42:50.319Z,96973.79
2023-03-26T11:45:25.646Z,96964.48
2023-03-26T11:48:04.780Z,96965.32
2023-03-26T11:50:39.004Z,96966.78
2023-03-26T11:53:13.826Z,96964.78
2023-03-26T11:55:52.685Z,96959.80
2023-03-26T11:58:44.158Z,96958.14
2023-03-26T12:01:22.937Z,96946.52
2023-03-26T12:04:19.084Z,96951.45
2023-03-26T12:06:57.843Z,96957.02
2023-03-26T12:09:31.722Z,96955.86
2023-03-26T12:12:03.327Z,96959.11
2023-03-26T12:14:37.245Z,96955.91
2023-03-26T12:17:09.139Z,96956.17
2023-03-26T12:19:41.877Z,96955.74
2023-03-26T12:22:37.535Z,96951.23
2023-03-26T12:25:19.396Z,96944.64
2023-03-26T12:27:59.032Z,96938.63
2023-03-26T12:30:39.717Z,96933.89
2023-03-26T12:33:19.952Z,96935.13
2023-03-26T12:35:49.589Z,96937.30
2023-03-26T12:38:35.969Z,96934.53
2023-03-26T12:44:42.568Z,96930.27
2023-03-26T12:44:49.858Z,96929.80
2023-03-26T12:48:00.299Z,96929.75
2023-03-26T12:50:34.190Z,96924.48
2023-03-26T12:53:25.689Z,96928.48
2023-03-26T12:56:21.959Z,96929.55
2023-03-26T12:59:05.803Z,96920.94
2023-03-26T13:02:09.471Z,96919.58
2023-03-26T13:05:16.384Z,96914.51
2023-03-26T13:08:07.912Z,96914.54
2023-03-26T13:11:07.623Z,96913.48
2023-03-26T13:13:58.172Z,96906.40
2023-03-26T13:16:48.248Z,96902.84
2023-03-26T13:19:21.583Z,96900.98
2023-03-26T13:21:59.545Z,96903.09
2023-03-26T13:24:31.383Z,96907.10
2023-03-26T13:27:06.609Z,96901.69
2023-03-26T13:29:44.097Z,96903.96
2023-03-26T13:32:15.076Z,96898.50
2023-03-26T13:35:07.969Z,96894.50
2023-03-26T13:37:55.255Z,96891.79
2023-03-26T13:40:40.011Z,96894.27
2023-03-26T13:43:14.451Z,96887.63
2023-03-26T13:46:22.803Z,96888.46
2023-03-26T13:48:58.741Z,96877.92
2023-03-26T13:51:48.567Z,96876.59
2023-03-26T13:54:36.038Z,96870.73
2023-03-26T13:57:10.487Z,96867.75
2023-03-26T14:00:09.762Z,96866.90
2023-03-26T14:02:43.029Z,96860.25
2023-03-26T14:05:42.849Z,96854.13
2023-03-26T14:08:20.538Z,96856.28
2023-03-26T14:10:55.977Z,96855.30
2023-03-26T14:13:33.284Z,96847.64
2023-03-26T14:16:23.832Z,96840.69
2023-03-26T14:19:25.021Z,96837.61
2023-03-26T14:22:40.756Z,96828.10
2023-03-26T14:25:46.914Z,96829.08
2023-03-26T14:28:33.059Z,96827.13
2023-03-26T14:31:20.956Z,96821.22
2023-03-26T14:34:39.020Z,96824.98
2023-03-26T14:37:33.118Z,96827.39
2023-03-26T14:40:17.242Z,96825.72
2023-03-26T14:42:58.096Z,96828.16
2023-03-26T14:45:46.113Z,96830.05
2023-03-26T14:48:54.495Z,96833.20
2023-03-26T14:51:58.299Z,96829.00
2023-03-26T14:54:31.588Z,96828.75
2023-03-26T14:57:06.524Z,96831.46
2023-03-26T14:59:47.579Z,96836.48
2023-03-26T15:02:38.044Z,96834.96
2023-03-26T15:05:25.312Z,96830.02
2023-03-26T15:08:24.721Z,96830.89
2023-03-26T15:11:36.140Z,96832.97
2023-03-26T15:14:24.860Z,96838.13
2023-03-26T15:17:09.703Z,96843.04
2023-03-26T15:19:44.322Z,96838.83
2023-03-26T15:22:54.498Z,96840.73
2023-03-26T15:26:00.818Z,96839.19
2023-03-26T15:28:57.435Z,96836.08
2023-03-26T15:31:47.840Z,96828.45
2023-03-26T15:34:38.658Z,96821.06
2023-03-26T15:37:26.795Z,96818.67
2023-03-26T15:40:19.447Z,96813.48
2023-03-26T15:43:21.471Z,96809.37
2023-03-26T15:46:08.886Z,96806.64
2023-03-26T15:48:46.910Z,96806.30
2023-03-26T15:51:52.656Z,96805.47
2023-03-26T15:54:37.103Z,96807.21
2023-03-26T15:57:20.156Z,96814.88
2023-03-26T16:00:00.729Z,96809.91
2023-03-26T16:03:10.167Z,96816.22
2023-03-26T16:06:14.276Z,96813.85
2023-03-26T16:08:54.909Z,96812.91
2023-03-26T16:11:43.990Z,96812.96
2023-03-26T16:14:23.304Z,96813.66
2023-03-26T16:16:54.433Z,96810.77
2023-03-26T16:19:23.233Z,96809.54
2023-03-26T16:22:02.195Z,96813.06
2023-03-26T16:24:34.925Z,96810.36
2023-03-26T16:27:05.526Z,96802.45
2023-03-26T16:29:56.497Z,96797.73
2023-03-26T16:32:36.649Z,96799.82
2023-03-26T16:35:39.196Z,96803.75
2023-03-26T16:38:16.284Z,96807.79
2023-03-26T16:40:59.794Z,96810.81
2023-03-26T16:43:43.578Z,96812.91
2023-03-26T16:46:47.581Z,96819.14
2023-03-26T16:49:31.057Z,96825.98
2023-03-26T16:52:09.790Z,96829.94
2023-03-26T16:55:01.436Z,96838.28
2023-03-26T16:57:37.137Z,96834.62
2023-03-26T17:00:16.651Z,96839.81
2023-03-26T17:03:03.844Z,96843.95
2023-03-26T17:05:51.253Z,96846.66
2023-03-26T17:08:53.485Z,96849.90
2023-03-26T17:11:38.817Z,96850.77
2023-03-26T17:14:26.223Z,96858.95
2023-03-26T17:17:30.827Z,96865.84
2023-03-26T17:20:51.138Z,96875.44
2023-03-26T17:23:28.146Z,96879.58
2023-03-26T17:26:15.801Z,96881.46
2023-03-26T17:29:09.418Z,96886.48
2023-03-26T17:31:53.564Z,96892.99
2023-03-26T17:34:49.344Z,96897.05
2023-03-26T17:37:19.100Z,96891.27
2023-03-26T17:39:47.578Z,96888.55
2023-03-26T17:42:16.258Z,96888.77
2023-03-26T17:44:49.325Z,96886.35
2023-03-26T17:47:33.777Z,96886.03
2023-03-26T17:50:37.813Z,96881.67
2023-03-26T17:53:31.375Z,96870.19
2023-03-26T17:56:11.647Z,96864.70
2023-03-26T17:58:48.046Z,96864.59
2023-03-26T18:01:38.543Z,96868.21
2023-03-26T18:04:15.919Z,96871.05
2023-03-26T18:07:16.933Z,96870.17
2023-03-26T18:10:20.060Z,96864.30
2023-03-26T18:13:15.924Z,96856.32
2023-03-26T18:16:09.654Z,96852.90
2023-03-26T18:18:51.183Z,96853.95
2023-03-26T18:21:33.366Z,96848.91
2023-03-26T18:24:05.241Z,96845.03
2023-03-26T18:26:45.084Z,96840.16
2023-03-26T18:29:20.102Z,96841.41
2023-03-26T18:31:53.432Z,96843.95
2023-03-26T18:34:22.493Z,96846.16
2023-03-26T18:37:03.118Z,96849.66
2023-03-26T18:39:31.554Z,96843.34
2023-03-26T18:42:00.686Z,96845.18
2023-03-26T18:44:29.282Z,96843.08
2023-03-26T18:46:57.695Z,96844.45
2023-03-26T18:49:30.347Z,96848.19
2023-03-26T18:51:58.855Z,96845.78
2023-03-26T18:54:32.379Z,96841.15
2023-03-26T18:57:15.196Z,96838.95
2023-03-26T18:59:45.761Z,96835.44
2023-03-26T19:02:14.924Z,96834.66
2023-03-26T19:04:47.038Z,96833.73
2023-03-26T19:07:25.467Z,96835.55
2023-03-26T19:09:56.629Z,96832.45
2023-03-26T19:12:34.118Z,96828.92
2023-03-26T19:15:16.126Z,96823.58
2023-03-26T19:17:53.604Z,96822.70
2023-03-26T19:20:26.611Z,96816.86
2023-03-26T19:22:57.049Z,96818.17
2023-03-26T19:25:31.761Z,96815.56
2023-03-26T19:28:00.291Z,96810.86
2023-03-26T19:30:35.270Z,96811.55
2023-03-26T19:33:13.718Z,96805.60
2023-03-26T19:35:45.568Z,96802.78
2023-03-26T19:38:19.398Z,96799.20
2023-03-26T19:40:48.118Z,96796.59
2023-03-26T19:43:17.933Z,96795.71
2023-03-26T19:46:04.987Z,96791.46
2023-03-26T19:48:46.113Z,96788.06
2023-03-26T19:51:21.205Z,96783.02
2023-03-26T19:54:00.358Z,96784.58
2023-03-26T19:56:30.685Z,96780.55
2023-03-26T19:58:59.534Z,96783.23
2023-03-26T20:01:30.505Z,96784.77
2023-03-26T20:04:02.409Z,96783.60
2023-03-26T20:06:42.245Z,96777.19
2023-03-26T20:09:13.819Z,96774.24
2023-03-26T20:11:42.675Z,96773.12
2023-03-26T20:14:17.256Z,96768.23
2023-03-26T20:16:46.247Z,96765.98
2023-03-26T20:19:15.652Z,96764.65
2023-03-26T20:21:45.012Z,96762.45
2023-03-26T20:24:16.475Z,96761.15
2023-03-26T20:26:48.462Z,96760.20
2023-03-26T20:29:17.703Z,96757.36
2023-03-26T20:31:46.251Z,96753.15
2023-03-26T20:34:23.766Z,96755.23
2023-03-26T20:36:56.118Z,96754.52
2023-03-26T20:39:25.342Z,96753.48
2023-03-26T20:41:55.016Z,96748.44
2023-03-26T20:44:26.926Z,96744.42
2023-03-26T20:46:59.079Z,96737.68
2023-03-26T20:49:29.727Z,96735.57
2023-03-26T20:51:59.749Z,96729.80
2023-03-26T20:54:30.484Z,96729.69
2023-03-26T20:56:59.100Z,96732.15
2023-03-26T20:59:28.624Z,96732.06
2023-03-26T21:01:58.147Z,96732.39
2023-03-26T21:04:27.505Z,96733.65
2023-03-26T21:07:07.249Z,96722.92
2023-03-26T21:09:45.418Z,96718.41
2023-03-26T21:12:30.434Z,96716.59
2023-03-26T21:14:59.589Z,96712.58
2023-03-26T21:17:28.576Z,96714.77
2023-03-26T21:20:00.624Z,96713.63
2023-03-26T21:22:40.588Z,96709.58
2023-03-26T21:25:23.019Z,96709.41
2023-03-26T21:28:17.354Z,96710.31
2023-03-26T21:30:47.183Z,96699.86
2023-03-26T21:33:15.638Z,96695.63
2023-03-26T21:35:45.164Z,96691.73
2023-03-26T21:38:18.000Z,96690.52
2023-03-26T21:40:52.955Z,96687.83
2023-03-26T21:43:27.222Z,96687.98
2023-03-26T21:45:59.047Z,96691.70
2023-03-26T21:48:29.286Z,96686.70
2023-03-26T21:51:02.595Z,96689.01
2023-03-26T21:53:31.344Z,96688.88
2023-03-26T21:56:21.132Z,96686.79
2023-03-26T21:59:21.831Z,96682.74
2023-03-26T22:02:02.960Z,96677.48
2023-03-26T22:04:57.457Z,96667.27
2023-03-26T22:07:48.696Z,96659.52
2023-03-26T22:10:17.443Z,96649.22
2023-03-26T22:12:46.167Z,96643.44
2023-03-26T22:15:15.028Z,96634.58
2023-03-26T22:17:43.817Z,96633.52
2023-03-26T22:20:14.948Z,96629.37
2023-03-26T22:22:49.036Z,96621.74
2023-03-26T22:25:20.156Z,96619.66
2023-03-26T22:27:50.758Z,96614.98
2023-03-26T22:30:21.037Z,96610.10
2023-03-26T22:32:50.469Z,96605.42
2023-03-26T22:35:19.725Z,96605.62
2023-03-26T22:37:48.661Z,96605.23
2023-03-26T22:40:18.160Z,96602.34
2023-03-26T22:42:46.966Z,96598.36
2023-03-26T22:45:15.473Z,96597.24
2023-03-26T22:47:45.197Z,96594.52
2023-03-26T22:50:13.849Z,96595.23
2023-03-26T22:52:42.631Z,96593.44
2023-03-26T22:55:12.173Z,96592.51
2023-03-26T22:57:41.530Z,96589.58
2023-03-26T23:00:16.530Z,96581.67
2023-03-26T23:02:46.759Z,96575.39
2023-03-26T23:05:17.738Z,96574.85
2023-03-26T23:07:46.493Z,96572.93
2023-03-26T23:10:14.969Z,96568.75
2023-03-26T23:12:43.520Z,96566.77
2023-03-26T23:15:12.157Z,96559.12
2023-03-26T23:17:42.999Z,96550.58
2023-03-26T23:20:15.527Z,96549.15
2023-03-26T23:22:48.951Z,96548.97
2023-03-26T23:25:17.529Z,96550.90
2023-03-26T23:27:46.128Z,96550.94
2023-03-26T23:30:19.549Z,96547.38
2023-03-26T23:32:50.907Z,96546.92
2023-03-26T23:35:19.453Z,96543.52
2023-03-26T23:37:50.977Z,96540.06
2023-03-26T23:40:22.093Z,96535.72
2023-03-26T23:42:50.688Z,96538.91
2023-03-26T23:45:25.123Z,96538.19
2023-03-26T23:47:54.015Z,96533.65
2023-03-26T23:50:29.691Z,96529.58
2023-03-26T23:52:58.963Z,96531.45
2023-03-26T23:55:35.701Z,96529.27
2023-03-26T23:58:09.924Z,96529.85
